sensor_id;sensor_type;location;lat;lon;timestamp;P1;durP1;ratioP1;P2;durP2;ratioP2
56141;SDS011;42018;48.588;10.836;2024-01-10T00:02:12;19.20;;;9.85;;
56141;SDS011;42018;48.588;10.836;2024-01-10T00:04:57;19.40;;;10.68;;
56141;SDS011;42018;48.588;10.836;2024-01-10T00:07:43;19.83;;;11.07;;
56141;SDS011;42018;48.588;10.836;2024-01-10T00:10:29;18.23;;;10.88;;
56141;SDS011;42018;48.588;10.836;2024-01-10T00:13:14;19.67;;;10.18;;
56141;SDS011;42018;48.588;10.836;2024-01-10T00:16:00;18.30;;;11.43;;
56141;SDS011;42018;48.588;10.836;2024-01-10T00:18:46;19.45;;;11.20;;
56141;SDS011;42018;48.588;10.836;2024-01-10T00:21:32;18.23;;;9.65;;
56141;SDS011;42018;48.588;10.836;2024-01-10T00:24:17;16.52;;;9.80;;
56141;SDS011;42018;48.588;10.836;2024-01-10T00:27:03;16.77;;;9.18;;
56141;SDS011;42018;48.588;10.836;2024-01-10T00:29:50;22.25;;;10.02;;
56141;SDS011;42018;48.588;10.836;2024-01-10T00:32:37;21.20;;;10.80;;
56141;SDS011;42018;48.588;10.836;2024-01-10T00:35:22;16.25;;;10.27;;
56141;SDS011;42018;48.588;10.836;2024-01-10T00:38:08;18.85;;;10.32;;
56141;SDS011;42018;48.588;10.836;2024-01-10T00:40:54;20.83;;;11.32;;
56141;SDS011;42018;48.588;10.836;2024-01-10T00:43:41;18.00;;;10.27;;
56141;SDS011;42018;48.588;10.836;2024-01-10T00:46:26;16.73;;;10.77;;
56141;SDS011;42018;48.588;10.836;2024-01-10T00:49:12;19.92;;;10.25;;
56141;SDS011;42018;48.588;10.836;2024-01-10T00:51:58;20.27;;;9.82;;
56141;SDS011;42018;48.588;10.836;2024-01-10T00:54:43;19.55;;;10.35;;
56141;SDS011;42018;48.588;10.836;2024-01-10T00:57:31;20.80;;;10.30;;
56141;SDS011;42018;48.588;10.836;2024-01-10T01:00:16;18.00;;;9.65;;
56141;SDS011;42018;48.588;10.836;2024-01-10T01:03:02;16.05;;;10.23;;
56141;SDS011;42018;48.588;10.836;2024-01-10T01:05:48;18.73;;;10.50;;
56141;SDS011;42018;48.588;10.836;2024-01-10T01:08:33;18.50;;;10.02;;
56141;SDS011;42018;48.588;10.836;2024-01-10T01:11:19;15.48;;;8.75;;
56141;SDS011;42018;48.588;10.836;2024-01-10T01:14:04;19.08;;;10.43;;
56141;SDS011;42018;48.588;10.836;2024-01-10T01:16:50;18.23;;;10.98;;
56141;SDS011;42018;48.588;10.836;2024-01-10T01:19:36;18.92;;;10.55;;
56141;SDS011;42018;48.588;10.836;2024-01-10T01:22:21;21.33;;;10.68;;
56141;SDS011;42018;48.588;10.836;2024-01-10T01:25:07;20.67;;;11.00;;
56141;SDS011;42018;48.588;10.836;2024-01-10T01:27:54;21.48;;;11.23;;
56141;SDS011;42018;48.588;10.836;2024-01-10T01:30:39;21.70;;;9.65;;
56141;SDS011;42018;48.588;10.836;2024-01-10T01:33:25;18.33;;;10.13;;
56141;SDS011;42018;48.588;10.836;2024-01-10T01:36:10;18.27;;;11.23;;
56141;SDS011;42018;48.588;10.836;2024-01-10T01:38:56;19.88;;;10.38;;
56141;SDS011;42018;48.588;10.836;2024-01-10T01:41:42;16.35;;;8.57;;
56141;SDS011;42018;48.588;10.836;2024-01-10T01:44:27;14.60;;;8.77;;
56141;SDS011;42018;48.588;10.836;2024-01-10T01:47:13;16.92;;;11.27;;
56141;SDS011;42018;48.588;10.836;2024-01-10T01:49:59;19.02;;;9.75;;
56141;SDS011;42018;48.588;10.836;2024-01-10T01:52:45;19.08;;;9.90;;
56141;SDS011;42018;48.588;10.836;2024-01-10T01:55:30;17.95;;;9.82;;
56141;SDS011;42018;48.588;10.836;2024-01-10T01:58:16;20.35;;;11.65;;
56141;SDS011;42018;48.588;10.836;2024-01-10T02:01:02;23.13;;;12.45;;
56141;SDS011;42018;48.588;10.836;2024-01-10T02:03:49;17.67;;;10.13;;
56141;SDS011;42018;48.588;10.836;2024-01-10T02:06:34;22.60;;;11.10;;
56141;SDS011;42018;48.588;10.836;2024-01-10T02:09:20;20.52;;;10.70;;
56141;SDS011;42018;48.588;10.836;2024-01-10T02:12:06;19.23;;;10.40;;
56141;SDS011;42018;48.588;10.836;2024-01-10T02:14:52;19.27;;;10.48;;
56141;SDS011;42018;48.588;10.836;2024-01-10T02:17:37;21.85;;;12.00;;
56141;SDS011;42018;48.588;10.836;2024-01-10T02:20:23;19.15;;;11.63;;
56141;SDS011;42018;48.588;10.836;2024-01-10T02:23:09;20.83;;;11.27;;
56141;SDS011;42018;48.588;10.836;2024-01-10T02:25:54;21.67;;;11.48;;
56141;SDS011;42018;48.588;10.836;2024-01-10T02:28:40;22.20;;;11.77;;
56141;SDS011;42018;48.588;10.836;2024-01-10T02:31:25;19.80;;;11.82;;
56141;SDS011;42018;48.588;10.836;2024-01-10T02:34:12;24.38;;;12.27;;
56141;SDS011;42018;48.588;10.836;2024-01-10T02:36:58;19.02;;;11.45;;
56141;SDS011;42018;48.588;10.836;2024-01-10T02:39:43;21.80;;;12.48;;
56141;SDS011;42018;48.588;10.836;2024-01-10T02:42:29;24.23;;;12.90;;
56141;SDS011;42018;48.588;10.836;2024-01-10T02:45:15;21.98;;;12.48;;
56141;SDS011;42018;48.588;10.836;2024-01-10T02:48:01;23.90;;;13.00;;
56141;SDS011;42018;48.588;10.836;2024-01-10T02:50:46;24.23;;;12.25;;
56141;SDS011;42018;48.588;10.836;2024-01-10T02:53:32;25.15;;;12.38;;
56141;SDS011;42018;48.588;10.836;2024-01-10T02:56:17;23.80;;;12.77;;
56141;SDS011;42018;48.588;10.836;2024-01-10T02:59:03;22.75;;;12.63;;
56141;SDS011;42018;48.588;10.836;2024-01-10T03:01:49;21.50;;;12.15;;
56141;SDS011;42018;48.588;10.836;2024-01-10T03:04:34;19.83;;;11.10;;
56141;SDS011;42018;48.588;10.836;2024-01-10T03:07:20;19.40;;;11.30;;
56141;SDS011;42018;48.588;10.836;2024-01-10T03:10:06;21.67;;;12.00;;
56141;SDS011;42018;48.588;10.836;2024-01-10T03:12:51;22.10;;;12.10;;
56141;SDS011;42018;48.588;10.836;2024-01-10T03:15:37;21.42;;;12.10;;
56141;SDS011;42018;48.588;10.836;2024-01-10T03:18:23;21.45;;;12.32;;
56141;SDS011;42018;48.588;10.836;2024-01-10T03:21:09;19.23;;;11.40;;
56141;SDS011;42018;48.588;10.836;2024-01-10T03:23:55;21.52;;;11.63;;
56141;SDS011;42018;48.588;10.836;2024-01-10T03:26:41;22.73;;;12.43;;
56141;SDS011;42018;48.588;10.836;2024-01-10T03:29:28;21.30;;;12.07;;
56141;SDS011;42018;48.588;10.836;2024-01-10T03:32:14;24.42;;;13.13;;
56141;SDS011;42018;48.588;10.836;2024-01-10T03:34:59;25.58;;;12.88;;
56141;SDS011;42018;48.588;10.836;2024-01-10T03:37:45;22.75;;;12.48;;
56141;SDS011;42018;48.588;10.836;2024-01-10T03:40:30;23.02;;;13.10;;
56141;SDS011;42018;48.588;10.836;2024-01-10T03:43:16;26.98;;;12.35;;
56141;SDS011;42018;48.588;10.836;2024-01-10T03:46:02;20.67;;;11.40;;
56141;SDS011;42018;48.588;10.836;2024-01-10T03:48:47;21.75;;;12.88;;
56141;SDS011;42018;48.588;10.836;2024-01-10T03:51:33;21.05;;;11.40;;
56141;SDS011;42018;48.588;10.836;2024-01-10T03:54:18;21.13;;;11.27;;
56141;SDS011;42018;48.588;10.836;2024-01-10T03:57:04;20.10;;;11.82;;
56141;SDS011;42018;48.588;10.836;2024-01-10T03:59:50;20.65;;;12.07;;
56141;SDS011;42018;48.588;10.836;2024-01-10T04:02:36;21.15;;;11.98;;
56141;SDS011;42018;48.588;10.836;2024-01-10T04:05:23;23.70;;;12.95;;
56141;SDS011;42018;48.588;10.836;2024-01-10T04:08:10;22.50;;;13.57;;
56141;SDS011;42018;48.588;10.836;2024-01-10T04:10:56;24.90;;;13.02;;
56141;SDS011;42018;48.588;10.836;2024-01-10T04:13:41;21.80;;;12.95;;
56141;SDS011;42018;48.588;10.836;2024-01-10T04:16:27;20.65;;;10.57;;
56141;SDS011;42018;48.588;10.836;2024-01-10T04:19:13;21.00;;;10.95;;
56141;SDS011;42018;48.588;10.836;2024-01-10T04:21:59;22.60;;;12.32;;
56141;SDS011;42018;48.588;10.836;2024-01-10T04:24:44;23.75;;;13.32;;
56141;SDS011;42018;48.588;10.836;2024-01-10T04:27:30;28.55;;;14.18;;
56141;SDS011;42018;48.588;10.836;2024-01-10T04:30:16;25.92;;;14.85;;
56141;SDS011;42018;48.588;10.836;2024-01-10T04:33:01;23.05;;;14.52;;
56141;SDS011;42018;48.588;10.836;2024-01-10T04:35:47;27.52;;;14.93;;
56141;SDS011;42018;48.588;10.836;2024-01-10T04:38:32;29.35;;;15.95;;
56141;SDS011;42018;48.588;10.836;2024-01-10T04:41:18;27.20;;;14.20;;
56141;SDS011;42018;48.588;10.836;2024-01-10T04:44:04;27.88;;;15.15;;
56141;SDS011;42018;48.588;10.836;2024-01-10T04:46:50;23.08;;;13.30;;
56141;SDS011;42018;48.588;10.836;2024-01-10T04:49:35;21.95;;;12.40;;
56141;SDS011;42018;48.588;10.836;2024-01-10T04:52:21;24.77;;;14.85;;
56141;SDS011;42018;48.588;10.836;2024-01-10T04:55:06;25.77;;;13.85;;
56141;SDS011;42018;48.588;10.836;2024-01-10T04:57:53;25.50;;;14.77;;
56141;SDS011;42018;48.588;10.836;2024-01-10T05:00:38;25.48;;;13.82;;
56141;SDS011;42018;48.588;10.836;2024-01-10T05:03:24;26.15;;;14.70;;
56141;SDS011;42018;48.588;10.836;2024-01-10T05:06:10;27.08;;;15.27;;
56141;SDS011;42018;48.588;10.836;2024-01-10T05:08:56;25.08;;;14.55;;
56141;SDS011;42018;48.588;10.836;2024-01-10T05:11:43;27.45;;;14.18;;
56141;SDS011;42018;48.588;10.836;2024-01-10T05:14:32;27.58;;;14.88;;
56141;SDS011;42018;48.588;10.836;2024-01-10T05:17:18;23.65;;;15.07;;
56141;SDS011;42018;48.588;10.836;2024-01-10T05:20:03;26.83;;;15.50;;
56141;SDS011;42018;48.588;10.836;2024-01-10T05:22:51;24.23;;;14.35;;
56141;SDS011;42018;48.588;10.836;2024-01-10T05:25:36;23.45;;;13.90;;
56141;SDS011;42018;48.588;10.836;2024-01-10T05:28:22;23.77;;;15.10;;
56141;SDS011;42018;48.588;10.836;2024-01-10T05:31:08;24.70;;;14.60;;
56141;SDS011;42018;48.588;10.836;2024-01-10T05:33:53;29.52;;;16.42;;
56141;SDS011;42018;48.588;10.836;2024-01-10T05:36:39;30.00;;;16.35;;
56141;SDS011;42018;48.588;10.836;2024-01-10T05:39:24;26.55;;;15.43;;
56141;SDS011;42018;48.588;10.836;2024-01-10T05:42:10;28.92;;;16.23;;
56141;SDS011;42018;48.588;10.836;2024-01-10T05:44:56;25.30;;;14.93;;
56141;SDS011;42018;48.588;10.836;2024-01-10T05:47:42;27.60;;;14.98;;
56141;SDS011;42018;48.588;10.836;2024-01-10T05:50:27;27.40;;;16.65;;
56141;SDS011;42018;48.588;10.836;2024-01-10T05:53:13;26.27;;;15.45;;
56141;SDS011;42018;48.588;10.836;2024-01-10T05:56:02;26.50;;;15.23;;
56141;SDS011;42018;48.588;10.836;2024-01-10T05:58:47;27.95;;;15.70;;
56141;SDS011;42018;48.588;10.836;2024-01-10T06:01:35;27.17;;;14.70;;
56141;SDS011;42018;48.588;10.836;2024-01-10T06:04:20;30.98;;;17.77;;
56141;SDS011;42018;48.588;10.836;2024-01-10T06:07:06;27.35;;;15.40;;
56141;SDS011;42018;48.588;10.836;2024-01-10T06:09:51;26.15;;;16.83;;
56141;SDS011;42018;48.588;10.836;2024-01-10T06:12:37;27.98;;;15.02;;
56141;SDS011;42018;48.588;10.836;2024-01-10T06:15:23;25.65;;;15.07;;
56141;SDS011;42018;48.588;10.836;2024-01-10T06:18:09;29.55;;;15.85;;
56141;SDS011;42018;48.588;10.836;2024-01-10T06:20:55;25.67;;;14.25;;
56141;SDS011;42018;48.588;10.836;2024-01-10T06:23:40;26.85;;;15.75;;
56141;SDS011;42018;48.588;10.836;2024-01-10T06:26:26;26.27;;;13.93;;
56141;SDS011;42018;48.588;10.836;2024-01-10T06:29:11;28.73;;;15.90;;
56141;SDS011;42018;48.588;10.836;2024-01-10T06:31:57;25.55;;;14.55;;
56141;SDS011;42018;48.588;10.836;2024-01-10T06:34:46;29.30;;;17.55;;
56141;SDS011;42018;48.588;10.836;2024-01-10T06:37:54;24.58;;;14.93;;
56141;SDS011;42018;48.588;10.836;2024-01-10T06:40:39;31.75;;;15.73;;
56141;SDS011;42018;48.588;10.836;2024-01-10T06:43:26;27.55;;;15.90;;
56141;SDS011;42018;48.588;10.836;2024-01-10T06:46:11;31.55;;;15.95;;
56141;SDS011;42018;48.588;10.836;2024-01-10T06:48:57;29.88;;;15.60;;
56141;SDS011;42018;48.588;10.836;2024-01-10T06:51:44;25.83;;;15.65;;
56141;SDS011;42018;48.588;10.836;2024-01-10T06:54:29;32.55;;;18.20;;
56141;SDS011;42018;48.588;10.836;2024-01-10T06:57:15;30.23;;;15.93;;
56141;SDS011;42018;48.588;10.836;2024-01-10T07:00:01;24.63;;;14.13;;
56141;SDS011;42018;48.588;10.836;2024-01-10T07:02:52;34.50;;;18.02;;
56141;SDS011;42018;48.588;10.836;2024-01-10T07:05:38;33.30;;;19.05;;
56141;SDS011;42018;48.588;10.836;2024-01-10T07:08:25;31.42;;;17.48;;
56141;SDS011;42018;48.588;10.836;2024-01-10T07:11:11;29.13;;;15.57;;
56141;SDS011;42018;48.588;10.836;2024-01-10T07:13:57;29.48;;;16.67;;
56141;SDS011;42018;48.588;10.836;2024-01-10T07:16:44;34.75;;;17.52;;
56141;SDS011;42018;48.588;10.836;2024-01-10T07:19:30;28.98;;;15.70;;
56141;SDS011;42018;48.588;10.836;2024-01-10T07:22:16;45.15;;;21.77;;
56141;SDS011;42018;48.588;10.836;2024-01-10T07:25:03;43.17;;;21.15;;
56141;SDS011;42018;48.588;10.836;2024-01-10T07:27:49;33.65;;;18.13;;
56141;SDS011;42018;48.588;10.836;2024-01-10T07:30:34;32.58;;;18.95;;
56141;SDS011;42018;48.588;10.836;2024-01-10T07:33:20;32.33;;;19.05;;
56141;SDS011;42018;48.588;10.836;2024-01-10T07:36:05;32.60;;;17.40;;
56141;SDS011;42018;48.588;10.836;2024-01-10T07:38:52;34.05;;;18.05;;
56141;SDS011;42018;48.588;10.836;2024-01-10T07:41:38;34.90;;;19.40;;
56141;SDS011;42018;48.588;10.836;2024-01-10T07:44:24;29.70;;;16.67;;
56141;SDS011;42018;48.588;10.836;2024-01-10T07:47:11;36.88;;;19.48;;
56141;SDS011;42018;48.588;10.836;2024-01-10T07:49:57;35.03;;;20.55;;
56141;SDS011;42018;48.588;10.836;2024-01-10T07:52:43;37.78;;;21.60;;
56141;SDS011;42018;48.588;10.836;2024-01-10T07:55:29;39.90;;;20.40;;
56141;SDS011;42018;48.588;10.836;2024-01-10T07:58:14;39.88;;;19.85;;
56141;SDS011;42018;48.588;10.836;2024-01-10T08:01:01;36.75;;;20.05;;
56141;SDS011;42018;48.588;10.836;2024-01-10T08:03:47;35.88;;;20.15;;
56141;SDS011;42018;48.588;10.836;2024-01-10T08:06:33;38.20;;;20.77;;
56141;SDS011;42018;48.588;10.836;2024-01-10T08:09:20;40.67;;;21.38;;
56141;SDS011;42018;48.588;10.836;2024-01-10T08:12:05;31.98;;;16.17;;
56141;SDS011;42018;48.588;10.836;2024-01-10T08:14:52;32.75;;;17.73;;
56141;SDS011;42018;48.588;10.836;2024-01-10T08:17:37;31.75;;;16.60;;
56141;SDS011;42018;48.588;10.836;2024-01-10T08:20:23;32.65;;;17.02;;
56141;SDS011;42018;48.588;10.836;2024-01-10T08:23:09;32.25;;;17.80;;
56141;SDS011;42018;48.588;10.836;2024-01-10T08:25:54;32.83;;;16.67;;
56141;SDS011;42018;48.588;10.836;2024-01-10T08:28:40;29.50;;;14.50;;
56141;SDS011;42018;48.588;10.836;2024-01-10T08:31:26;30.30;;;15.68;;
56141;SDS011;42018;48.588;10.836;2024-01-10T08:34:12;28.35;;;15.88;;
56141;SDS011;42018;48.588;10.836;2024-01-10T08:36:57;38.55;;;18.98;;
56141;SDS011;42018;48.588;10.836;2024-01-10T08:39:43;42.03;;;22.15;;
56141;SDS011;42018;48.588;10.836;2024-01-10T08:42:29;38.08;;;20.80;;
56141;SDS011;42018;48.588;10.836;2024-01-10T08:45:15;31.85;;;18.27;;
56141;SDS011;42018;48.588;10.836;2024-01-10T08:48:00;33.72;;;18.17;;
56141;SDS011;42018;48.588;10.836;2024-01-10T08:50:46;37.10;;;19.48;;
56141;SDS011;42018;48.588;10.836;2024-01-10T08:53:31;37.10;;;19.98;;
56141;SDS011;42018;48.588;10.836;2024-01-10T08:56:17;36.13;;;18.33;;
56141;SDS011;42018;48.588;10.836;2024-01-10T08:59:03;37.65;;;19.77;;
56141;SDS011;42018;48.588;10.836;2024-01-10T09:01:49;37.15;;;17.95;;
56141;SDS011;42018;48.588;10.836;2024-01-10T09:04:34;33.85;;;17.45;;
56141;SDS011;42018;48.588;10.836;2024-01-10T09:07:20;38.58;;;20.45;;
56141;SDS011;42018;48.588;10.836;2024-01-10T09:10:06;40.10;;;20.00;;
56141;SDS011;42018;48.588;10.836;2024-01-10T09:12:52;35.15;;;18.40;;
56141;SDS011;42018;48.588;10.836;2024-01-10T09:15:38;45.42;;;22.95;;
56141;SDS011;42018;48.588;10.836;2024-01-10T09:18:24;39.35;;;20.17;;
56141;SDS011;42018;48.588;10.836;2024-01-10T09:21:09;40.33;;;22.42;;
56141;SDS011;42018;48.588;10.836;2024-01-10T09:23:55;40.03;;;21.60;;
56141;SDS011;42018;48.588;10.836;2024-01-10T09:26:42;41.70;;;21.33;;
56141;SDS011;42018;48.588;10.836;2024-01-10T09:29:29;39.63;;;20.20;;
56141;SDS011;42018;48.588;10.836;2024-01-10T09:32:16;36.47;;;19.40;;
56141;SDS011;42018;48.588;10.836;2024-01-10T09:35:02;39.85;;;20.85;;
56141;SDS011;42018;48.588;10.836;2024-01-10T09:37:48;43.15;;;21.20;;
56141;SDS011;42018;48.588;10.836;2024-01-10T09:40:34;42.22;;;22.38;;
56141;SDS011;42018;48.588;10.836;2024-01-10T09:43:20;40.63;;;22.10;;
56141;SDS011;42018;48.588;10.836;2024-01-10T09:46:07;43.40;;;21.85;;
56141;SDS011;42018;48.588;10.836;2024-01-10T09:48:53;43.10;;;21.77;;
56141;SDS011;42018;48.588;10.836;2024-01-10T09:51:39;41.05;;;19.98;;
56141;SDS011;42018;48.588;10.836;2024-01-10T09:54:25;38.80;;;21.55;;
56141;SDS011;42018;48.588;10.836;2024-01-10T09:57:14;35.65;;;20.20;;
56141;SDS011;42018;48.588;10.836;2024-01-10T10:00:00;37.65;;;20.98;;
56141;SDS011;42018;48.588;10.836;2024-01-10T10:02:52;41.45;;;20.52;;
56141;SDS011;42018;48.588;10.836;2024-01-10T10:05:41;38.72;;;20.08;;
56141;SDS011;42018;48.588;10.836;2024-01-10T10:08:27;40.60;;;21.65;;
56141;SDS011;42018;48.588;10.836;2024-01-10T10:11:13;40.97;;;21.75;;
56141;SDS011;42018;48.588;10.836;2024-01-10T10:14:13;40.00;;;20.77;;
56141;SDS011;42018;48.588;10.836;2024-01-10T10:17:14;41.05;;;21.88;;
56141;SDS011;42018;48.588;10.836;2024-01-10T10:20:03;36.23;;;19.70;;
56141;SDS011;42018;48.588;10.836;2024-01-10T10:23:00;37.03;;;19.70;;
56141;SDS011;42018;48.588;10.836;2024-01-10T10:25:49;38.63;;;20.55;;
56141;SDS011;42018;48.588;10.836;2024-01-10T10:28:35;42.95;;;23.63;;
56141;SDS011;42018;48.588;10.836;2024-01-10T10:31:21;44.20;;;23.90;;
56141;SDS011;42018;48.588;10.836;2024-01-10T10:34:07;34.78;;;19.60;;
56141;SDS011;42018;48.588;10.836;2024-01-10T10:36:52;42.28;;;23.48;;
56141;SDS011;42018;48.588;10.836;2024-01-10T10:39:38;39.45;;;20.40;;
56141;SDS011;42018;48.588;10.836;2024-01-10T10:42:23;37.28;;;18.73;;
56141;SDS011;42018;48.588;10.836;2024-01-10T10:45:16;42.80;;;19.95;;
56141;SDS011;42018;48.588;10.836;2024-01-10T10:48:02;43.75;;;22.17;;
56141;SDS011;42018;48.588;10.836;2024-01-10T10:50:54;38.50;;;20.17;;
56141;SDS011;42018;48.588;10.836;2024-01-10T10:53:44;39.70;;;21.58;;
56141;SDS011;42018;48.588;10.836;2024-01-10T10:56:31;38.13;;;20.17;;
56141;SDS011;42018;48.588;10.836;2024-01-10T10:59:19;40.95;;;20.90;;
56141;SDS011;42018;48.588;10.836;2024-01-10T11:02:07;39.30;;;21.73;;
56141;SDS011;42018;48.588;10.836;2024-01-10T11:04:55;42.58;;;21.85;;
56141;SDS011;42018;48.588;10.836;2024-01-10T11:07:42;39.08;;;21.73;;
56141;SDS011;42018;48.588;10.836;2024-01-10T11:10:34;40.53;;;20.70;;
56141;SDS011;42018;48.588;10.836;2024-01-10T11:16:35;41.47;;;20.77;;
56141;SDS011;42018;48.588;10.836;2024-01-10T11:26:00;35.33;;;18.00;;
56141;SDS011;42018;48.588;10.836;2024-01-10T11:28:49;39.15;;;20.95;;
56141;SDS011;42018;48.588;10.836;2024-01-10T11:31:35;39.47;;;21.17;;
56141;SDS011;42018;48.588;10.836;2024-01-10T11:34:24;42.22;;;21.33;;
56141;SDS011;42018;48.588;10.836;2024-01-10T11:37:13;40.50;;;21.25;;
56141;SDS011;42018;48.588;10.836;2024-01-10T11:39:58;46.20;;;23.17;;
56141;SDS011;42018;48.588;10.836;2024-01-10T11:42:45;35.38;;;18.23;;
56141;SDS011;42018;48.588;10.836;2024-01-10T11:48:30;39.90;;;21.13;;
56141;SDS011;42018;48.588;10.836;2024-01-10T11:51:17;39.53;;;21.77;;
56141;SDS011;42018;48.588;10.836;2024-01-10T11:54:04;44.95;;;24.00;;
56141;SDS011;42018;48.588;10.836;2024-01-10T11:56:50;39.80;;;21.17;;
56141;SDS011;42018;48.588;10.836;2024-01-10T11:59:36;38.92;;;19.92;;
56141;SDS011;42018;48.588;10.836;2024-01-10T12:02:23;33.92;;;19.90;;
56141;SDS011;42018;48.588;10.836;2024-01-10T12:05:10;41.55;;;20.38;;
56141;SDS011;42018;48.588;10.836;2024-01-10T12:07:56;37.60;;;21.40;;
56141;SDS011;42018;48.588;10.836;2024-01-10T12:10:44;42.70;;;23.08;;
56141;SDS011;42018;48.588;10.836;2024-01-10T12:13:29;42.53;;;20.42;;
56141;SDS011;42018;48.588;10.836;2024-01-10T12:16:16;40.33;;;21.00;;
56141;SDS011;42018;48.588;10.836;2024-01-10T12:19:02;38.50;;;20.73;;
56141;SDS011;42018;48.588;10.836;2024-01-10T12:21:48;45.03;;;21.10;;
56141;SDS011;42018;48.588;10.836;2024-01-10T12:24:38;37.67;;;20.58;;
56141;SDS011;42018;48.588;10.836;2024-01-10T12:27:29;37.95;;;19.52;;
56141;SDS011;42018;48.588;10.836;2024-01-10T12:30:15;37.97;;;20.77;;
56141;SDS011;42018;48.588;10.836;2024-01-10T12:33:01;35.40;;;19.30;;
56141;SDS011;42018;48.588;10.836;2024-01-10T12:36:01;42.28;;;23.63;;
56141;SDS011;42018;48.588;10.836;2024-01-10T12:38:49;38.30;;;20.88;;
56141;SDS011;42018;48.588;10.836;2024-01-10T12:41:35;37.65;;;20.05;;
56141;SDS011;42018;48.588;10.836;2024-01-10T12:44:26;41.30;;;22.90;;
56141;SDS011;42018;48.588;10.836;2024-01-10T12:47:19;40.58;;;21.35;;
56141;SDS011;42018;48.588;10.836;2024-01-10T12:50:06;35.90;;;20.15;;
56141;SDS011;42018;48.588;10.836;2024-01-10T12:52:53;41.15;;;20.52;;
56141;SDS011;42018;48.588;10.836;2024-01-10T12:55:38;40.40;;;22.40;;
56141;SDS011;42018;48.588;10.836;2024-01-10T12:58:24;43.00;;;24.10;;
56141;SDS011;42018;48.588;10.836;2024-01-10T13:01:09;42.97;;;22.65;;
56141;SDS011;42018;48.588;10.836;2024-01-10T13:03:56;39.97;;;22.42;;
56141;SDS011;42018;48.588;10.836;2024-01-10T13:06:42;40.35;;;22.08;;
56141;SDS011;42018;48.588;10.836;2024-01-10T13:09:28;42.00;;;23.48;;
56141;SDS011;42018;48.588;10.836;2024-01-10T13:12:13;39.65;;;20.63;;
56141;SDS011;42018;48.588;10.836;2024-01-10T13:14:59;36.95;;;19.95;;
56141;SDS011;42018;48.588;10.836;2024-01-10T13:17:44;39.83;;;20.90;;
56141;SDS011;42018;48.588;10.836;2024-01-10T13:20:31;40.25;;;21.70;;
56141;SDS011;42018;48.588;10.836;2024-01-10T13:23:17;39.50;;;22.30;;
56141;SDS011;42018;48.588;10.836;2024-01-10T13:26:03;41.55;;;23.05;;
56141;SDS011;42018;48.588;10.836;2024-01-10T13:28:49;42.00;;;22.88;;
56141;SDS011;42018;48.588;10.836;2024-01-10T13:31:36;43.38;;;22.88;;
56141;SDS011;42018;48.588;10.836;2024-01-10T13:34:21;41.38;;;22.60;;
56141;SDS011;42018;48.588;10.836;2024-01-10T13:37:07;43.03;;;22.33;;
56141;SDS011;42018;48.588;10.836;2024-01-10T13:39:55;36.90;;;19.70;;
56141;SDS011;42018;48.588;10.836;2024-01-10T13:42:42;35.80;;;16.70;;
56141;SDS011;42018;48.588;10.836;2024-01-10T13:45:28;35.30;;;20.38;;
56141;SDS011;42018;48.588;10.836;2024-01-10T13:48:14;32.75;;;18.15;;
56141;SDS011;42018;48.588;10.836;2024-01-10T13:51:01;34.80;;;19.92;;
56141;SDS011;42018;48.588;10.836;2024-01-10T13:53:46;36.67;;;18.55;;
56141;SDS011;42018;48.588;10.836;2024-01-10T13:56:32;38.97;;;21.35;;
56141;SDS011;42018;48.588;10.836;2024-01-10T13:59:19;43.70;;;21.63;;
56141;SDS011;42018;48.588;10.836;2024-01-10T14:02:04;44.70;;;23.15;;
56141;SDS011;42018;48.588;10.836;2024-01-10T14:04:51;41.42;;;23.25;;
56141;SDS011;42018;48.588;10.836;2024-01-10T14:07:39;40.75;;;20.80;;
56141;SDS011;42018;48.588;10.836;2024-01-10T14:10:25;37.70;;;19.70;;
56141;SDS011;42018;48.588;10.836;2024-01-10T14:13:10;42.40;;;22.45;;
56141;SDS011;42018;48.588;10.836;2024-01-10T14:15:56;34.10;;;19.92;;
56141;SDS011;42018;48.588;10.836;2024-01-10T14:18:41;36.80;;;18.98;;
56141;SDS011;42018;48.588;10.836;2024-01-10T14:21:27;43.25;;;23.73;;
56141;SDS011;42018;48.588;10.836;2024-01-10T14:24:12;40.80;;;21.40;;
56141;SDS011;42018;48.588;10.836;2024-01-10T14:26:58;40.05;;;21.58;;
56141;SDS011;42018;48.588;10.836;2024-01-10T14:29:43;39.28;;;19.65;;
56141;SDS011;42018;48.588;10.836;2024-01-10T14:32:29;42.53;;;23.17;;
56141;SDS011;42018;48.588;10.836;2024-01-10T14:35:14;47.17;;;24.27;;
56141;SDS011;42018;48.588;10.836;2024-01-10T14:38:00;41.90;;;21.63;;
56141;SDS011;42018;48.588;10.836;2024-01-10T14:40:45;41.05;;;21.30;;
56141;SDS011;42018;48.588;10.836;2024-01-10T14:43:31;35.78;;;18.98;;
56141;SDS011;42018;48.588;10.836;2024-01-10T14:46:17;40.53;;;22.65;;
56141;SDS011;42018;48.588;10.836;2024-01-10T14:49:02;36.22;;;19.70;;
56141;SDS011;42018;48.588;10.836;2024-01-10T14:51:48;38.80;;;21.23;;
56141;SDS011;42018;48.588;10.836;2024-01-10T14:54:34;42.72;;;22.88;;
56141;SDS011;42018;48.588;10.836;2024-01-10T14:57:19;32.45;;;18.05;;
56141;SDS011;42018;48.588;10.836;2024-01-10T15:00:06;41.85;;;22.02;;
56141;SDS011;42018;48.588;10.836;2024-01-10T15:02:52;40.38;;;20.83;;
56141;SDS011;42018;48.588;10.836;2024-01-10T15:05:39;36.13;;;19.65;;
56141;SDS011;42018;48.588;10.836;2024-01-10T15:08:26;40.10;;;21.23;;
56141;SDS011;42018;48.588;10.836;2024-01-10T15:11:11;39.10;;;20.73;;
56141;SDS011;42018;48.588;10.836;2024-01-10T15:13:57;39.38;;;19.65;;
56141;SDS011;42018;48.588;10.836;2024-01-10T15:16:42;33.78;;;17.00;;
56141;SDS011;42018;48.588;10.836;2024-01-10T15:19:28;42.33;;;21.40;;
56141;SDS011;42018;48.588;10.836;2024-01-10T15:22:13;40.15;;;21.70;;
56141;SDS011;42018;48.588;10.836;2024-01-10T15:24:59;41.00;;;20.80;;
56141;SDS011;42018;48.588;10.836;2024-01-10T15:27:46;44.10;;;22.25;;
56141;SDS011;42018;48.588;10.836;2024-01-10T15:30:33;35.38;;;20.27;;
56141;SDS011;42018;48.588;10.836;2024-01-10T15:33:18;36.75;;;20.42;;
56141;SDS011;42018;48.588;10.836;2024-01-10T15:36:04;39.78;;;22.17;;
56141;SDS011;42018;48.588;10.836;2024-01-10T15:38:50;41.17;;;20.88;;
56141;SDS011;42018;48.588;10.836;2024-01-10T15:41:35;37.63;;;20.63;;
56141;SDS011;42018;48.588;10.836;2024-01-10T15:44:21;37.58;;;19.90;;
56141;SDS011;42018;48.588;10.836;2024-01-10T15:47:07;39.67;;;20.33;;
56141;SDS011;42018;48.588;10.836;2024-01-10T15:49:53;35.38;;;18.00;;
56141;SDS011;42018;48.588;10.836;2024-01-10T15:52:38;37.92;;;19.25;;
56141;SDS011;42018;48.588;10.836;2024-01-10T15:55:24;49.40;;;23.50;;
56141;SDS011;42018;48.588;10.836;2024-01-10T15:58:12;40.50;;;20.50;;
56141;SDS011;42018;48.588;10.836;2024-01-10T16:00:58;43.47;;;22.23;;
56141;SDS011;42018;48.588;10.836;2024-01-10T16:03:44;43.00;;;22.52;;
56141;SDS011;42018;48.588;10.836;2024-01-10T16:06:33;40.10;;;20.77;;
56141;SDS011;42018;48.588;10.836;2024-01-10T16:09:19;36.17;;;18.95;;
56141;SDS011;42018;48.588;10.836;2024-01-10T16:12:05;42.08;;;21.27;;